createdAt,value
2023-05-19T00:00:59.288Z,102943.34
2023-05-19T00:03:27.894Z,102942.50
2023-05-19T00:05:57.235Z,102945.56
2023-05-19T00:08:26.832Z,102949.19
2023-05-19T00:10:55.363Z,102942.78
2023-05-19T00:13:23.503Z,102943.59
2023-05-19T00:15:52.044Z,102937.28
2023-05-19T00:18:20.663Z,102932.06
2023-05-19T00:20:48.818Z,102937.41
2023-05-19T00:23:16.750Z,102926.72
2023-05-19T00:25:46.173Z,102918.84
2023-05-19T00:28:14.230Z,102919.41
2023-05-19T00:30:42.800Z,102925.28
2023-05-19T00:33:10.998Z,102922.97
2023-05-19T00:35:41.047Z,102926.97
2023-05-19T00:38:09.046Z,102934.00
2023-05-19T00:40:37.052Z,102935.81
2023-05-19T00:43:08.397Z,102933.16
2023-05-19T00:45:36.721Z,102930.72
2023-05-19T00:48:06.273Z,102934.13
2023-05-19T00:50:34.916Z,102930.94
2023-05-19T00:53:02.962Z,102921.59
2023-05-19T00:55:31.486Z,102921.81
2023-05-19T00:58:00.252Z,102934.34
2023-05-19T01:00:30.019Z,102919.28
2023-05-19T01:02:58.324Z,102924.63
2023-05-19T01:05:26.295Z,102918.66
2023-05-19T01:07:56.461Z,102924.13
2023-05-19T01:10:24.547Z,102927.78
2023-05-19T01:12:52.561Z,102931.53
2023-05-19T01:15:20.833Z,102918.28
2023-05-19T01:17:55.606Z,102929.94
2023-05-19T01:20:29.135Z,102924.97
2023-05-19T01:23:15.094Z,102915.38
2023-05-19T01:26:07.036Z,102909.53
2023-05-19T01:29:03.084Z,102909.53
2023-05-19T01:31:32.508Z,102916.31
2023-05-19T01:34:00.721Z,102909.50
2023-05-19T01:36:28.719Z,102907.44
2023-05-19T01:38:57.911Z,102914.72
2023-05-19T01:41:26.026Z,102907.66
2023-05-19T01:43:54.298Z,102911.50
2023-05-19T01:46:23.211Z,102910.25
2023-05-19T01:48:52.528Z,102905.38
2023-05-19T01:51:21.013Z,102910.09
2023-05-19T01:53:48.961Z,102901.59
2023-05-19T01:56:18.176Z,102895.63
2023-05-19T01:58:48.171Z,102905.44
2023-05-19T02:01:21.318Z,102902.03
2023-05-19T02:04:12.860Z,102896.38
2023-05-19T02:06:42.930Z,102898.19
2023-05-19T02:09:18.854Z,102899.91
2023-05-19T02:11:48.416Z,102898.19
2023-05-19T02:14:18.941Z,102900.97
2023-05-19T02:16:48.809Z,102900.38
2023-05-19T02:19:23.750Z,102895.34
2023-05-19T02:21:52.263Z,102888.44
2023-05-19T02:24:24.974Z,102881.63
2023-05-19T02:26:53.155Z,102879.91
2023-05-19T02:29:21.094Z,102888.38
2023-05-19T02:31:49.183Z,102886.91
2023-05-19T02:34:19.021Z,102883.72
2023-05-19T02:36:51.659Z,102883.22
2023-05-19T02:39:20.089Z,102864.78
2023-05-19T02:41:48.365Z,102870.44
2023-05-19T02:44:16.367Z,102877.09
2023-05-19T02:46:44.595Z,102880.94
2023-05-19T02:49:12.736Z,102878.72
2023-05-19T02:51:42.112Z,102883.09
2023-05-19T02:54:11.747Z,102869.88
2023-05-19T02:56:39.827Z,102878.22
2023-05-19T02:59:07.836Z,102880.13
2023-05-19T03:01:37.674Z,102882.78
2023-05-19T03:04:06.212Z,102872.22
2023-05-19T03:06:34.325Z,102869.69
2023-05-19T03:09:02.499Z,102872.56
2023-05-19T03:11:32.274Z,102874.63
2023-05-19T03:14:01.575Z,102872.06
2023-05-19T03:16:29.606Z,102864.25
2023-05-19T03:18:57.834Z,102864.59
2023-05-19T03:21:25.918Z,102856.69
2023-05-19T03:23:54.678Z,102868.56
2023-05-19T03:26:24.625Z,102866.31
2023-05-19T03:28:55.486Z,102867.59
2023-05-19T03:31:23.714Z,102874.03
2023-05-19T03:33:51.778Z,102873.25
2023-05-19T03:36:20.231Z,102875.19
2023-05-19T03:38:48.162Z,102873.69
2023-05-19T03:41:16.349Z,102878.72
2023-05-19T03:43:44.888Z,102860.38
2023-05-19T03:46:14.278Z,102875.94
2023-05-19T03:48:43.535Z,102877.00
2023-05-19T03:51:34.915Z,102881.78
2023-05-19T03:54:19.349Z,102875.94
2023-05-19T03:56:47.492Z,102881.47
2023-05-19T03:59:16.237Z,102883.41
2023-05-19T04:01:46.546Z,102882.31
2023-05-19T04:04:14.981Z,102891.06
2023-05-19T04:06:42.934Z,102882.03
2023-05-19T04:09:13.104Z,102873.81
2023-05-19T04:11:41.404Z,102875.50
2023-05-19T04:14:11.650Z,102878.19
2023-05-19T04:16:39.599Z,102882.53
2023-05-19T04:19:09.101Z,102884.25
2023-05-19T04:21:37.108Z,102892.13
2023-05-19T04:24:06.680Z,102882.53
2023-05-19T04:26:38.390Z,102898.72
2023-05-19T04:29:06.766Z,102892.09
2023-05-19T04:31:36.032Z,102897.09
2023-05-19T04:34:06.029Z,102887.09
2023-05-19T04:36:35.574Z,102891.84
2023-05-19T04:39:07.408Z,102899.09
2023-05-19T04:41:35.846Z,102896.63
2023-05-19T04:44:07.553Z,102890.56
2023-05-19T04:46:36.230Z,102898.53
2023-05-19T04:49:04.319Z,102888.66
2023-05-19T04:51:32.317Z,102878.78
2023-05-19T04:54:04.029Z,102879.63
2023-05-19T04:56:32.107Z,102861.63
2023-05-19T04:59:00.223Z,102860.69
2023-05-19T05:01:30.948Z,102849.94
2023-05-19T05:03:59.277Z,102847.19
2023-05-19T05:06:28.751Z,102853.25
2023-05-19T05:08:56.920Z,102845.06
2023-05-19T05:11:27.968Z,102836.31
2023-05-19T05:14:00.593Z,102844.41
2023-05-19T05:16:30.983Z,102847.06
2023-05-19T05:19:00.674Z,102840.16
2023-05-19T05:21:29.422Z,102844.53
2023-05-19T05:23:57.834Z,102840.78
2023-05-19T05:26:31.011Z,102841.63
2023-05-19T05:28:59.322Z,102845.25
2023-05-19T05:31:27.590Z,102842.06
2023-05-19T05:33:55.695Z,102844.63
2023-05-19T05:36:28.008Z,102849.00
2023-05-19T05:38:56.154Z,102845.25
2023-05-19T05:41:24.680Z,102844.19
2023-05-19T05:43:55.567Z,102842.59
2023-05-19T05:46:24.430Z,102848.56
2023-05-19T05:48:53.027Z,102858.69
2023-05-19T05:51:22.646Z,102864.53
2023-05-19T05:53:52.858Z,102867.84
2023-05-19T05:56:22.597Z,102866.56
2023-05-19T05:58:55.000Z,102871.28
2023-05-19T06:01:24.102Z,102859.84
2023-05-19T06:03:52.686Z,102861.66
2023-05-19T06:06:24.467Z,102854.53
2023-05-19T06:08:54.338Z,102852.69
2023-05-19T06:11:23.085Z,102841.97
2023-05-19T06:13:52.078Z,102851.56
2023-05-19T06:16:39.885Z,102847.88
2023-05-19T06:19:09.852Z,102860.28
2023-05-19T06:21:37.884Z,102856.72
2023-05-19T06:24:06.443Z,102850.69
2023-05-19T06:26:34.436Z,102861.31
2023-05-19T06:29:02.528Z,102853.59
2023-05-19T06:31:31.427Z,102846.66
2023-05-19T06:34:10.374Z,102849.97
2023-05-19T06:36:41.348Z,102855.56
2023-05-19T06:39:10.002Z,102852.19
2023-05-19T06:41:38.441Z,102863.66
2023-05-19T06:44:08.700Z,102873.84
2023-05-19T06:46:38.136Z,102874.38
2023-05-19T06:49:06.489Z,102873.16
2023-05-19T06:51:41.382Z,102873.88
2023-05-19T06:54:11.096Z,102879.69
2023-05-19T06:56:39.208Z,102873.00
2023-05-19T06:59:07.439Z,102877.72
2023-05-19T07:01:38.110Z,102880.88
2023-05-19T07:04:06.431Z,102885.50
2023-05-19T07:06:34.976Z,102892.03
2023-05-19T07:09:05.483Z,102895.06
2023-05-19T07:11:33.916Z,102897.34
2023-05-19T07:14:04.126Z,102876.44
2023-05-19T07:16:33.449Z,102882.03
2023-05-19T07:19:01.594Z,102881.66
2023-05-19T07:21:29.741Z,102881.50
2023-05-19T07:24:00.136Z,102878.38
2023-05-19T07:26:32.067Z,102875.94
2023-05-19T07:29:00.287Z,102902.47
2023-05-19T07:31:28.638Z,102882.97
2023-05-19T07:33:58.060Z,102888.53
2023-05-19T07:36:26.247Z,102892.41
2023-05-19T07:38:54.387Z,102874.25
2023-05-19T07:41:23.036Z,102889.47
2023-05-19T07:43:54.906Z,102890.81
2023-05-19T07:46:24.772Z,102892.63
2023-05-19T07:48:52.770Z,102912.38
2023-05-19T07:51:20.833Z,102898.22
2023-05-19T07:53:49.211Z,102893.69
2023-05-19T07:56:18.042Z,102908.25
2023-05-19T07:58:46.526Z,102909.91
2023-05-19T08:01:17.442Z,102903.47
2023-05-19T08:03:52.042Z,102904.78
2023-05-19T08:06:25.462Z,102912.16
2023-05-19T08:09:15.301Z,102913.19
2023-05-19T08:11:56.711Z,102927.44
2023-05-19T08:15:19.197Z,102917.97
2023-05-19T08:18:44.827Z,102922.38
2023-05-19T08:22:15.441Z,102922.75
2023-05-19T08:24:57.749Z,102917.59
2023-05-19T08:30:27.532Z,102923.91
2023-05-19T08:33:09.795Z,102914.59
2023-05-19T08:36:00.557Z,102921.41
2023-05-19T08:41:41.152Z,102917.19
2023-05-19T08:44:09.302Z,102927.09
2023-05-19T08:46:37.814Z,102920.16
2023-05-19T08:49:09.519Z,102922.00
2023-05-19T08:51:42.661Z,102909.28
2023-05-19T08:54:14.058Z,102917.47
2023-05-19T08:56:44.631Z,102919.28
2023-05-19T08:59:15.484Z,102918.88
2023-05-19T09:01:44.218Z,102918.28
2023-05-19T09:04:13.626Z,102917.19
2023-05-19T09:06:43.322Z,102918.56
2023-05-19T09:09:11.454Z,102918.69
2023-05-19T09:11:41.083Z,102922.25
2023-05-19T09:14:11.859Z,102913.19
2023-05-19T09:16:40.647Z,102909.38
2023-05-19T09:19:18.495Z,102901.59
2023-05-19T09:21:47.150Z,102894.97
2023-05-19T09:24:17.045Z,102885.72
2023-05-19T09:26:49.202Z,102875.81
2023-05-19T09:29:19.817Z,102863.88
2023-05-19T09:31:54.432Z,102857.09
2023-05-19T09:34:25.167Z,102844.63
2023-05-19T09:36:56.700Z,102842.19
2023-05-19T09:39:26.457Z,102845.97
2023-05-19T09:41:54.970Z,102845.91
2023-05-19T09:44:27.958Z,102845.97
2023-05-19T09:46:56.570Z,102841.44
2023-05-19T09:49:29.650Z,102856.06
2023-05-19T09:52:00.071Z,102852.94
2023-05-19T09:54:31.194Z,102854.44
2023-05-19T09:57:01.118Z,102858.63
2023-05-19T09:59:33.691Z,102854.69
2023-05-19T10:02:05.660Z,102860.38
2023-05-19T10:04:34.363Z,102854.84
2023-05-19T10:07:05.730Z,102849.22
2023-05-19T10:09:34.215Z,102859.00
2023-05-19T10:12:02.415Z,102863.09
2023-05-19T10:14:32.064Z,102849.63
2023-05-19T10:17:00.848Z,102850.88
2023-05-19T10:19:29.707Z,102855.59
2023-05-19T10:21:57.930Z,102842.81
2023-05-19T10:24:26.374Z,102847.03
2023-05-19T10:26:56.574Z,102838.94
2023-05-19T10:29:28.201Z,102847.34
2023-05-19T10:31:58.071Z,102837.94
2023-05-19T10:34:42.096Z,102834.94
2023-05-19T10:37:12.920Z,102837.31
2023-05-19T10:39:41.296Z,102839.53
2023-05-19T10:42:13.792Z,102829.09
2023-05-19T10:44:45.701Z,102824.53
2023-05-19T10:47:15.638Z,102835.16
2023-05-19T10:49:43.745Z,102834.00
2023-05-19T10:52:21.548Z,102828.75
2023-05-19T10:54:49.750Z,102844.81
2023-05-19T10:57:18.006Z,102830.94
2023-05-19T10:59:46.016Z,102852.53
2023-05-19T11:02:39.944Z,102834.13
2023-05-19T11:05:14.501Z,102839.19
2023-05-19T11:07:44.348Z,102842.19
2023-05-19T11:10:13.171Z,102825.66
2023-05-19T11:12:42.047Z,102833.88
2023-05-19T11:15:12.756Z,102834.97
2023-05-19T11:17:43.207Z,102839.19
2023-05-19T11:20:22.838Z,102843.00
2023-05-19T11:23:07.348Z,102840.34
2023-05-19T11:25:48.524Z,102847.25
2023-05-19T11:28:20.335Z,102847.25
2023-05-19T11:30:51.876Z,102848.22
2023-05-19T11:33:27.275Z,102845.16
2023-05-19T11:35:57.981Z,102842.47
2023-05-19T11:38:28.327Z,102846.38
2023-05-19T11:40:57.040Z,102853.19
2023-05-19T11:43:25.478Z,102848.63
2023-05-19T11:45:54.357Z,102844.81
2023-05-19T11:48:24.097Z,102838.78
2023-05-19T11:50:52.542Z,102835.94
2023-05-19T11:53:21.177Z,102842.06
2023-05-19T11:55:50.059Z,102837.00
2023-05-19T11:58:18.561Z,102843.88
2023-05-19T12:00:47.731Z,102846.28
2023-05-19T12:03:17.622Z,102837.84
2023-05-19T12:05:50.021Z,102842.69
2023-05-19T12:08:18.784Z,102839.53
2023-05-19T12:10:50.902Z,102835.84
2023-05-19T12:13:19.023Z,102829.25
2023-05-19T12:15:47.271Z,102821.97
2023-05-19T12:18:15.357Z,102836.13
2023-05-19T12:20:43.905Z,102841.38
2023-05-19T12:23:15.474Z,102840.16
2023-05-19T12:25:53.223Z,102848.81
2023-05-19T12:28:21.875Z,102844.44
2023-05-19T12:30:52.177Z,102845.16
2023-05-19T12:33:20.684Z,102836.13
2023-05-19T12:35:51.175Z,102844.31
2023-05-19T12:38:20.640Z,102843.44
2023-05-19T12:40:52.196Z,102842.38
2023-05-19T12:43:22.448Z,102840.31
2023-05-19T12:45:51.055Z,102840.84
2023-05-19T12:48:20.105Z,102831.72
2023-05-19T12:50:48.643Z,102834.69
2023-05-19T12:53:16.925Z,102826.59
2023-05-19T12:55:48.725Z,102831.34
2023-05-19T12:58:17.456Z,102823.25
2023-05-19T13:00:47.447Z,102821.28
2023-05-19T13:03:17.299Z,102813.56
2023-05-19T13:05:46.622Z,102821.34
2023-05-19T13:08:15.493Z,102823.06
2023-05-19T13:10:44.784Z,102814.00
2023-05-19T13:13:14.622Z,102824.34
2023-05-19T13:15:43.809Z,102820.13
2023-05-19T13:18:14.613Z,102826.19
2023-05-19T13:20:43.441Z,102826.03
2023-05-19T13:23:14.560Z,102828.72
2023-05-19T13:25:42.984Z,102823.16
2023-05-19T13:28:11.164Z,102832.53
2023-05-19T13:30:46.562Z,102827.78
2023-05-19T13:33:19.739Z,102821.22
2023-05-19T13:35:49.266Z,102834.94
2023-05-19T13:38:17.395Z,102834.41
2023-05-19T13:40:45.947Z,102827.00
2023-05-19T13:43:13.987Z,102830.41
2023-05-19T13:45:52.799Z,102828.00
2023-05-19T13:48:22.500Z,102831.38
2023-05-19T13:50:52.581Z,102818.22
2023-05-19T13:53:20.822Z,102826.75
2023-05-19T13:55:49.241Z,102815.56
2023-05-19T13:58:19.099Z,102812.69
2023-05-19T14:00:47.085Z,102815.03
2023-05-19T14:03:16.356Z,102815.63
2023-05-19T14:05:47.192Z,102813.81
2023-05-19T14:08:15.245Z,102802.19
2023-05-19T14:10:43.396Z,102798.16
2023-05-19T14:13:31.363Z,102791.38
2023-05-19T14:16:01.069Z,102791.06
2023-05-19T14:18:29.050Z,102790.75
2023-05-19T14:20:58.543Z,102785.34
2023-05-19T14:23:27.914Z,102779.28
2023-05-19T14:25:56.114Z,102787.19
2023-05-19T14:28:24.315Z,102778.34
2023-05-19T14:30:52.448Z,102775.59
2023-05-19T14:33:21.969Z,102781.06
2023-05-19T14:35:50.224Z,102776.28
2023-05-19T14:38:19.627Z,102771.16
2023-05-19T14:40:48.546Z,102772.66
2023-05-19T14:43:16.540Z,102764.69
2023-05-19T14:45:45.336Z,102756.78
2023-05-19T14:48:13.357Z,102760.22
2023-05-19T14:50:42.678Z,102748.63
2023-05-19T14:53:13.058Z,102747.25
2023-05-19T14:55:42.438Z,102740.38
2023-05-19T14:58:26.921Z,102735.13
2023-05-19T15:00:58.908Z,102732.91
2023-05-19T15:03:26.993Z,102737.81
2023-05-19T15:05:55.101Z,102737.63
2023-05-19T15:08:23.509Z,102735.94
2023-05-19T15:10:52.861Z,102735.31
2023-05-19T15:13:21.590Z,102736.94
2023-05-19T15:15:49.675Z,102727.81
2023-05-19T15:18:18.821Z,102737.53
2023-05-19T15:20:47.018Z,102734.38
2023-05-19T15:23:15.118Z,102742.63
2023-05-19T15:25:43.104Z,102735.31
2023-05-19T15:28:13.875Z,102744.81
2023-05-19T15:30:43.303Z,102730.03
2023-05-19T15:33:11.838Z,102738.28
2023-05-19T15:35:40.230Z,102731.31
2023-05-19T15:38:08.519Z,102729.75
2023-05-19T15:40:36.942Z,102736.28
2023-05-19T15:43:05.210Z,102744.16
2023-05-19T15:45:35.496Z,102742.28
2023-05-19T15:48:04.178Z,102742.25
2023-05-19T15:50:33.065Z,102759.88
2023-05-19T15:53:01.540Z,102759.03
2023-05-19T15:55:32.139Z,102746.22
2023-05-19T15:58:00.660Z,102750.28
2023-05-19T16:00:29.042Z,102756.59
2023-05-19T16:02:59.078Z,102750.75
2023-05-19T16:05:28.848Z,102745.56
2023-05-19T16:07:57.417Z,102759.41
2023-05-19T16:10:26.272Z,102754.34
2023-05-19T16:12:54.474Z,102768.09
2023-05-19T16:15:22.514Z,102769.81
2023-05-19T16:17:50.508Z,102764.31
2023-05-19T16:20:21.401Z,102752.75
2023-05-19T16:22:49.674Z,102758.28
2023-05-19T16:25:17.922Z,102784.94
2023-05-19T16:27:46.455Z,102773.50
2023-05-19T16:30:14.855Z,102767.88
2023-05-19T16:32:43.074Z,102760.06
2023-05-19T16:35:11.386Z,102758.13
2023-05-19T16:37:40.763Z,102747.38
2023-05-19T16:40:09.723Z,102754.53
2023-05-19T16:42:37.890Z,102769.50
2023-05-19T16:45:07.050Z,102751.59
2023-05-19T16:47:35.409Z,102769.84
2023-05-19T16:50:03.620Z,102764.78
2023-05-19T16:52:31.617Z,102761.41
2023-05-19T16:55:01.062Z,102762.56
2023-05-19T16:57:29.000Z,102754.44
2023-05-19T16:59:56.964Z,102762.06
2023-05-19T17:02:24.969Z,102760.38
2023-05-19T17:04:53.406Z,102757.84
2023-05-19T17:07:21.859Z,102773.56
2023-05-19T17:09:50.250Z,102778.28
2023-05-19T17:12:19.645Z,102773.53
2023-05-19T17:14:47.764Z,102773.53
2023-05-19T17:17:15.823Z,102775.53
2023-05-19T17:19:43.885Z,102774.56
2023-05-19T17:22:11.893Z,102775.59
2023-05-19T17:24:39.926Z,102786.16
2023-05-19T17:27:07.927Z,102784.69
2023-05-19T17:29:37.410Z,102784.34
2023-05-19T17:32:06.050Z,102787.88
2023-05-19T17:34:34.057Z,102783.69
2023-05-19T17:37:02.049Z,102775.06
2023-05-19T17:39:30.192Z,102767.66
2023-05-19T17:41:58.137Z,102767.47
2023-05-19T17:44:26.473Z,102781.63
2023-05-19T17:46:55.876Z,102764.41
2023-05-19T17:49:25.730Z,102771.47
2023-05-19T17:51:54.547Z,102767.78
2023-05-19T17:54:23.539Z,102765.44
2023-05-19T17:56:52.176Z,102761.06
2023-05-19T17:59:21.273Z,102751.09
2023-05-19T18:01:49.704Z,102753.63
2023-05-19T18:04:19.818Z,102755.16
2023-05-19T18:06:47.918Z,102750.94
2023-05-19T18:09:15.963Z,102752.44
2023-05-19T18:11:44.019Z,102756.66
2023-05-19T18:14:12.007Z,102764.41
2023-05-19T18:16:40.053Z,102758.38
2023-05-19T18:19:08.231Z,102747.56
2023-05-19T18:21:38.071Z,102760.53
2023-05-19T18:24:07.129Z,102749.69
2023-05-19T18:26:37.746Z,102757.91
2023-05-19T18:29:05.907Z,102758.84
2023-05-19T18:31:33.891Z,102764.69
2023-05-19T18:34:02.032Z,102753.28
2023-05-19T18:36:30.026Z,102760.72
2023-05-19T18:39:00.152Z,102758.75
2023-05-19T18:41:28.209Z,102748.63
2023-05-19T18:43:56.171Z,102762.78
2023-05-19T18:46:24.490Z,102753.25
2023-05-19T18:48:52.986Z,102754.03
2023-05-19T18:51:21.827Z,102756.56
2023-05-19T18:53:50.674Z,102764.78
2023-05-19T18:56:25.376Z,102773.78
2023-05-19T18:58:53.517Z,102760.34
2023-05-19T19:01:21.478Z,102763.72
2023-05-19T19:03:49.732Z,102749.09
2023-05-19T19:06:18.111Z,102766.78
2023-05-19T19:08:46.298Z,102763.94
2023-05-19T19:11:14.269Z,102762.16
2023-05-19T19:13:43.879Z,102757.84
2023-05-19T19:16:12.166Z,102764.19
2023-05-19T19:18:40.294Z,102758.34
2023-05-19T19:21:08.415Z,102767.31
2023-05-19T19:23:36.408Z,102770.59
2023-05-19T19:26:04.466Z,102775.88
2023-05-19T19:28:32.529Z,102783.22
2023-05-19T19:31:02.175Z,102784.66
2023-05-19T19:33:30.231Z,102784.22
2023-05-19T19:35:58.297Z,102780.72
2023-05-19T19:38:26.537Z,102789.78
2023-05-19T19:40:54.523Z,102787.25
2023-05-19T19:43:22.492Z,102783.84
2023-05-19T19:45:51.157Z,102790.38
2023-05-19T19:48:20.795Z,102783.06
2023-05-19T19:50:52.892Z,102787.03
2023-05-19T19:53:20.902Z,102790.44
2023-05-19T19:55:57.048Z,102801.25
2023-05-19T19:58:25.108Z,102796.03
2023-05-19T20:00:57.136Z,102792.25
2023-05-19T20:03:26.877Z,102795.63
2023-05-19T20:05:55.740Z,102796.06
2023-05-19T20:08:23.852Z,102799.91
2023-05-19T20:10:52.268Z,102803.44
2023-05-19T20:13:20.292Z,102792.97
2023-05-19T20:15:48.428Z,102812.34
2023-05-19T20:18:16.405Z,102805.25
2023-05-19T20:20:45.981Z,102809.94
2023-05-19T20:23:16.237Z,102822.91
2023-05-19T20:26:02.393Z,102819.53
2023-05-19T20:28:32.411Z,102831.25
2023-05-19T20:31:00.445Z,102831.25
2023-05-19T20:33:28.540Z,102831.25
2023-05-19T20:35:57.861Z,102828.72
2023-05-19T20:38:26.017Z,102841.56
2023-05-19T20:40:54.839Z,102832.38
2023-05-19T20:43:22.927Z,102832.66
2023-05-19T20:45:51.362Z,102836.63
2023-05-19T20:48:19.498Z,102826.41
2023-05-19T20:50:47.654Z,102836.59
2023-05-19T20:53:17.032Z,102824.44
2023-05-19T20:55:45.493Z,102829.94
2023-05-19T20:58:13.456Z,102834.81
2023-05-19T21:00:41.660Z,102830.00
2023-05-19T21:03:09.862Z,102834.81
2023-05-19T21:05:37.909Z,102842.41
2023-05-19T21:08:06.312Z,102838.72
2023-05-19T21:10:35.762Z,102842.66
2023-05-19T21:13:04.366Z,102843.91
2023-05-19T21:15:32.797Z,102832.72
2023-05-19T21:18:00.997Z,102836.94
2023-05-19T21:20:29.249Z,102845.97
2023-05-19T21:22:57.697Z,102844.28
2023-05-19T21:25:25.890Z,102842.28
2023-05-19T21:27:56.090Z,102838.06
2023-05-19T21:30:24.134Z,102834.41
2023-05-19T21:32:52.192Z,102846.97
2023-05-19T21:35:20.330Z,102836.25
2023-05-19T21:37:48.302Z,102840.63
2023-05-19T21:40:16.458Z,102841.31
2023-05-19T21:42:44.407Z,102838.38
2023-05-19T21:45:13.871Z,102835.56
2023-05-19T21:47:41.861Z,102843.19
2023-05-19T21:50:11.394Z,102848.00
2023-05-19T21:52:39.421Z,102844.53
2023-05-19T21:55:09.051Z,102843.00
2023-05-19T21:57:37.056Z,102840.75
2023-05-19T22:00:06.496Z,102835.13
2023-05-19T22:02:41.231Z,102832.44
2023-05-19T22:05:10.068Z,102834.81
2023-05-19T22:07:38.008Z,102821.41
2023-05-19T22:10:06.868Z,102827.34
2023-05-19T22:12:34.845Z,102823.81
2023-05-19T22:15:03.582Z,102828.91
2023-05-19T22:17:31.781Z,102831.19
2023-05-19T22:20:01.206Z,102836.28
2023-05-19T22:22:29.203Z,102832.91
2023-05-19T22:24:57.163Z,102820.84
2023-05-19T22:27:25.262Z,102817.31
2023-05-19T22:29:53.502Z,102822.69
2023-05-19T22:32:21.446Z,102822.69
2023-05-19T22:34:49.683Z,102834.81
2023-05-19T22:37:19.087Z,102830.34
2023-05-19T22:39:47.075Z,102827.28
2023-05-19T22:42:15.358Z,102825.84
2023-05-19T22:44:44.374Z,102830.94
2023-05-19T22:47:13.930Z,102829.81
2023-05-19T22:49:42.311Z,102823.59
2023-05-19T22:52:10.836Z,102823.59
2023-05-19T22:54:40.302Z,102826.41
2023-05-19T22:57:08.372Z,102832.06
2023-05-19T22:59:38.259Z,102836.00
2023-05-19T23:02:06.394Z,102828.50
2023-05-19T23:04:34.430Z,102826.09
2023-05-19T23:07:02.601Z,102830.31
2023-05-19T23:09:30.631Z,102828.59
2023-05-19T23:11:59.978Z,102837.63
2023-05-19T23:14:28.168Z,102837.75
2023-05-19T23:16:56.231Z,102835.06
2023-05-19T23:19:24.431Z,102828.88
2023-05-19T23:21:52.513Z,102834.22
2023-05-19T23:24:20.605Z,102837.63
2023-05-19T23:26:48.541Z,102836.78
2023-05-19T23:29:17.902Z,102832.41
2023-05-19T23:31:45.962Z,102836.19
2023-05-19T23:34:14.091Z,102834.91
2023-05-19T23:36:42.110Z,102836.75
2023-05-19T23:39:10.232Z,102834.78
2023-05-19T23:41:38.290Z,102838.88
2023-05-19T23:44:06.625Z,102838.47
2023-05-19T23:46:36.017Z,102837.34
2023-05-19T23:49:04.220Z,102831.97
2023-05-19T23:51:32.405Z,102828.19
2023-05-19T23:54:00.456Z,102839.88
2023-05-19T23:56:28.464Z,102834.22
2023-05-19T23:58:56.716Z,102831.13
